Logan - 24 Hour Table
Date & TimeSolar
Radiation
(W/m²)
Wind
Speed
(mph)
Wind
Direction
(degrees)
Air
Temperature
(°F)
Relative
Humidity
(%)
Precipitation
(inches)
Barometric
Pressure
(inHg)
2017/08/20 17:00 470 2.4 193 88.1 15 0.00 29.98
2017/08/20 16:00 639 2.0 191 88.1 18 0.00 29.99
2017/08/20 15:00 755 3.2 161 86.5 18 0.00 30.00
2017/08/20 14:00 818 2.9 303 85.7 17 0.00 30.03
2017/08/20 13:00 854 2.8 302 82.9 17 0.00 30.05
2017/08/20 12:00 851 2.9 289 79.1 24 0.00 30.07
2017/08/20 11:00 759 2.3 324 75.5 26 0.00 30.08
2017/08/20 10:00 620 3.7 329 71.2 29 0.00 30.09
2017/08/20 09:00 452 3.3 355 65.7 39 0.00 30.09
2017/08/20 08:00 274 2.3 2 60.6 48 0.00 30.08
2017/08/20 07:00 95 2.5 359 53.7 64 0.00 30.07
2017/08/20 06:00 3 1.9 208 52.4 71 0.00 30.05
2017/08/20 05:00 0 2.2 294 52.1 80 0.00 30.04
2017/08/20 04:00 0 2.3 357 57.2 76 0.00 30.04
2017/08/20 03:00 0 2.5 287 56.9 52 0.00 30.03
2017/08/20 02:00 0 4.3 20 58.1 57 0.00 30.02
2017/08/20 01:00 0 2.5 100 61.4 29 0.00 30.01
2017/08/20 00:00 0 5.1 168 63.3 46 0.00 30.02
2017/08/19 23:00 0 4.4 174 65.2 57 0.00 30.01
2017/08/19 22:00 0 4.3 330 64.5 44 0.00 30.00
2017/08/19 21:00 0 1.2 174 70.4 37 0.00 29.99
2017/08/19 20:00 5 2.2 159 77.5 34 0.00 29.99
2017/08/19 19:00 110 4.9 169 84.0 26 0.00 29.97
2017/08/19 18:00 294 6.9 178 85.9 14 0.00 29.97